createdAt,value
2022-08-26T00:01:32.360Z,94559.09
2022-08-26T00:04:01.586Z,94554.31
2022-08-26T00:06:29.220Z,94557.69
2022-08-26T00:08:55.872Z,94552.22
2022-08-26T00:11:26.284Z,94558.09
2022-08-26T00:13:54.806Z,94555.97
2022-08-26T00:16:23.381Z,94554.25
2022-08-26T00:18:50.649Z,94552.16
2022-08-26T00:21:17.352Z,94550.72
2022-08-26T00:23:44.996Z,94551.28
2022-08-26T00:26:12.685Z,94549.72
2022-08-26T00:28:40.374Z,94556.19
2022-08-26T00:31:07.346Z,94554.44
2022-08-26T00:33:38.263Z,94553.59
2022-08-26T00:36:06.008Z,94550.78
2022-08-26T00:38:33.285Z,94561.28
2022-08-26T00:41:00.458Z,94559.75
2022-08-26T00:43:30.255Z,94560.13
2022-08-26T00:46:27.041Z,94554.66
2022-08-26T00:49:02.906Z,94554.34
2022-08-26T00:51:30.915Z,94551.53
2022-08-26T00:54:01.951Z,94554.03
2022-08-26T00:56:38.299Z,94545.72
2022-08-26T00:59:08.198Z,94546.28
2022-08-26T01:01:36.364Z,94555.38
2022-08-26T01:04:03.707Z,94552.56
2022-08-26T01:06:31.697Z,94554.38
2022-08-26T01:08:58.442Z,94546.94
2022-08-26T01:11:26.107Z,94552.66
2022-08-26T01:13:56.045Z,94553.91
2022-08-26T01:16:24.949Z,94552.34
2022-08-26T01:19:02.210Z,94549.53
2022-08-26T01:21:49.938Z,94553.16
2022-08-26T01:24:17.524Z,94545.69
2022-08-26T01:26:45.490Z,94548.88
2022-08-26T01:29:18.076Z,94546.81
2022-08-26T01:31:58.221Z,94545.75
2022-08-26T01:34:37.093Z,94555.00
2022-08-26T01:37:16.066Z,94543.34
2022-08-26T01:39:44.960Z,94551.84
2022-08-26T01:42:15.454Z,94545.69
2022-08-26T01:44:54.082Z,94542.88
2022-08-26T01:47:23.116Z,94542.69
2022-08-26T01:49:53.647Z,94545.22
2022-08-26T01:52:28.397Z,94548.44
2022-08-26T01:54:57.021Z,94542.09
2022-08-26T01:57:24.936Z,94544.03
2022-08-26T01:59:55.532Z,94548.66
2022-08-26T02:02:24.582Z,94551.00
2022-08-26T02:05:00.006Z,94547.47
2022-08-26T02:07:28.117Z,94551.94
2022-08-26T02:09:55.229Z,94559.25
2022-08-26T02:12:22.563Z,94546.13
2022-08-26T02:14:59.527Z,94554.13
2022-08-26T02:17:34.091Z,94547.22
2022-08-26T02:20:03.602Z,94553.63
2022-08-26T02:22:31.265Z,94551.53
2022-08-26T02:25:01.047Z,94546.59
2022-08-26T02:27:32.929Z,94549.81
2022-08-26T02:30:18.035Z,94548.38
2022-08-26T02:32:45.216Z,94542.72
2022-08-26T02:35:18.189Z,94547.91
2022-08-26T02:37:51.223Z,94538.31
2022-08-26T02:40:21.748Z,94536.22
2022-08-26T02:42:49.683Z,94538.00
2022-08-26T02:45:23.465Z,94538.94
2022-08-26T02:47:52.256Z,94538.94
2022-08-26T02:50:19.390Z,94538.94
2022-08-26T02:52:46.261Z,94538.78
2022-08-26T02:55:13.115Z,94533.84
2022-08-26T02:57:39.892Z,94538.97
2022-08-26T03:00:09.858Z,94540.94
2022-08-26T03:02:36.985Z,94528.03
2022-08-26T03:05:04.384Z,94541.34
2022-08-26T03:07:31.236Z,94531.75
2022-08-26T03:09:59.155Z,94534.44
2022-08-26T03:12:25.892Z,94525.56
2022-08-26T03:14:52.824Z,94530.88
2022-08-26T03:17:19.634Z,94524.72
2022-08-26T03:19:46.402Z,94530.56
2022-08-26T03:22:14.882Z,94532.38
2022-08-26T03:24:45.997Z,94522.25
2022-08-26T03:27:13.655Z,94527.41
2022-08-26T03:29:59.614Z,94525.84
2022-08-26T03:32:27.130Z,94526.38
2022-08-26T03:34:54.330Z,94520.88
2022-08-26T03:37:21.784Z,94523.38
2022-08-26T03:39:49.380Z,94519.16
2022-08-26T03:42:16.458Z,94512.97
2022-08-26T03:44:43.352Z,94519.53
2022-08-26T03:47:11.106Z,94514.78
2022-08-26T03:49:37.942Z,94516.53
2022-08-26T03:52:05.973Z,94515.13
2022-08-26T03:54:33.496Z,94515.50
2022-08-26T03:57:00.362Z,94525.41
2022-08-26T03:59:27.527Z,94521.38
2022-08-26T04:01:54.700Z,94530.59
2022-08-26T04:04:22.787Z,94521.19
2022-08-26T04:06:57.099Z,94528.47
2022-08-26T04:09:24.009Z,94527.06
2022-08-26T04:11:52.121Z,94520.16
2022-08-26T04:14:22.127Z,94527.97
2022-08-26T04:16:49.941Z,94519.81
2022-08-26T04:19:18.811Z,94527.09
2022-08-26T04:21:47.716Z,94520.19
2022-08-26T04:24:16.576Z,94522.16
2022-08-26T04:26:44.722Z,94517.38
2022-08-26T04:29:18.693Z,94521.28
2022-08-26T04:31:46.994Z,94515.97
2022-08-26T04:34:14.944Z,94514.38
2022-08-26T04:36:43.385Z,94521.31
2022-08-26T04:39:12.411Z,94522.72
2022-08-26T04:41:39.716Z,94514.59
2022-08-26T04:44:07.131Z,94523.81
2022-08-26T04:46:34.404Z,94527.00
2022-08-26T04:49:02.158Z,94530.91
2022-08-26T04:51:29.024Z,94523.47
2022-08-26T04:53:59.342Z,94536.59
2022-08-26T04:56:28.598Z,94533.22
2022-08-26T04:58:55.708Z,94531.81
2022-08-26T05:01:23.108Z,94539.78
2022-08-26T05:03:51.569Z,94538.38
2022-08-26T05:06:20.428Z,94540.84
2022-08-26T05:08:48.926Z,94540.16
2022-08-26T05:11:15.852Z,94536.75
2022-08-26T05:13:42.646Z,94533.44
2022-08-26T05:16:12.771Z,94537.50
2022-08-26T05:18:40.553Z,94534.09
2022-08-26T05:21:07.736Z,94541.41
2022-08-26T05:23:37.308Z,94539.41
2022-08-26T05:26:08.390Z,94544.91
2022-08-26T05:28:36.553Z,94542.25
2022-08-26T05:31:13.325Z,94543.16
2022-08-26T05:33:42.289Z,94545.09
2022-08-26T05:36:12.010Z,94542.59
2022-08-26T05:38:40.079Z,94544.03
2022-08-26T05:41:18.125Z,94544.19
2022-08-26T05:43:45.739Z,94558.19
2022-08-26T05:46:12.646Z,94555.38
2022-08-26T05:48:39.999Z,94553.41
2022-08-26T05:51:12.334Z,94550.41
2022-08-26T05:53:43.993Z,94553.22
2022-08-26T05:56:27.882Z,94551.44
2022-08-26T05:58:56.542Z,94551.59
2022-08-26T06:01:28.569Z,94558.31
2022-08-26T06:04:01.740Z,94553.19
2022-08-26T06:06:35.805Z,94554.75
2022-08-26T06:09:05.655Z,94556.88
2022-08-26T06:11:33.114Z,94563.06
2022-08-26T06:14:04.229Z,94563.41
2022-08-26T06:16:33.767Z,94561.63
2022-08-26T06:19:03.423Z,94562.66
2022-08-26T06:21:40.222Z,94566.22
2022-08-26T06:24:30.763Z,94565.50
2022-08-26T06:27:03.238Z,94558.03
2022-08-26T06:29:33.637Z,94563.84
2022-08-26T06:32:01.781Z,94566.81
2022-08-26T06:34:29.751Z,94565.38
2022-08-26T06:36:59.765Z,94566.41
2022-08-26T06:39:30.710Z,94572.06
2022-08-26T06:41:59.133Z,94573.13
2022-08-26T06:44:27.275Z,94566.84
2022-08-26T06:46:54.726Z,94575.84
2022-08-26T06:49:26.516Z,94563.59
2022-08-26T06:51:54.019Z,94568.38
2022-08-26T06:54:21.406Z,94565.13
2022-08-26T06:56:48.176Z,94567.53
2022-08-26T06:59:16.060Z,94568.75
2022-08-26T07:01:47.142Z,94565.16
2022-08-26T07:04:21.991Z,94564.25
2022-08-26T07:06:52.635Z,94566.25
2022-08-26T07:09:25.808Z,94572.22
2022-08-26T07:11:53.816Z,94565.81
2022-08-26T07:14:21.883Z,94564.84
2022-08-26T07:16:52.073Z,94567.50
2022-08-26T07:19:30.386Z,94569.34
2022-08-26T07:22:03.952Z,94569.25
2022-08-26T07:24:32.713Z,94570.75
2022-08-26T07:27:05.460Z,94576.34
2022-08-26T07:29:33.366Z,94572.38
2022-08-26T07:32:01.239Z,94575.63
2022-08-26T07:34:28.593Z,94571.59
2022-08-26T07:36:57.238Z,94581.78
2022-08-26T07:39:26.796Z,94575.88
2022-08-26T07:41:54.583Z,94572.44
2022-08-26T07:44:21.842Z,94568.13
2022-08-26T07:46:53.139Z,94571.69
2022-08-26T07:49:22.692Z,94568.22
2022-08-26T07:51:50.661Z,94569.50
2022-08-26T07:54:17.726Z,94565.34
2022-08-26T07:56:46.801Z,94578.00
2022-08-26T07:59:15.269Z,94567.91
2022-08-26T08:01:44.708Z,94570.88
2022-08-26T08:04:13.925Z,94576.81
2022-08-26T08:06:41.172Z,94574.72
2022-08-26T08:09:12.792Z,94572.34
2022-08-26T08:11:43.327Z,94578.94
2022-08-26T08:14:11.974Z,94570.81
2022-08-26T08:16:41.900Z,94573.34
2022-08-26T08:19:13.509Z,94571.44
2022-08-26T08:21:42.297Z,94571.13
2022-08-26T08:24:10.159Z,94569.31
2022-08-26T08:26:37.444Z,94563.00
2022-08-26T08:29:04.474Z,94568.63
2022-08-26T08:34:19.994Z,94570.88
2022-08-26T08:36:48.706Z,94559.75
2022-08-26T08:39:16.978Z,94572.72
2022-08-26T08:41:46.557Z,94562.97
2022-08-26T08:44:20.135Z,94559.19
2022-08-26T08:46:50.166Z,94557.91
2022-08-26T08:49:17.654Z,94555.53
2022-08-26T08:52:29.223Z,94561.41
2022-08-26T08:54:56.408Z,94561.94
2022-08-26T08:57:50.401Z,94562.81
2022-08-26T09:00:30.199Z,94561.25
2022-08-26T09:03:03.146Z,94569.94
2022-08-26T09:05:42.609Z,94558.69
2022-08-26T09:08:19.856Z,94566.69
2022-08-26T09:10:52.940Z,94561.53
2022-08-26T09:13:25.404Z,94557.38
2022-08-26T09:16:07.610Z,94567.66
2022-08-26T09:19:14.712Z,94560.03
2022-08-26T09:21:46.049Z,94563.09
2022-08-26T09:24:14.740Z,94564.09
2022-08-26T09:26:48.724Z,94565.88
2022-08-26T09:29:31.636Z,94567.13
2022-08-26T09:32:16.533Z,94571.03
2022-08-26T09:34:54.427Z,94567.06
2022-08-26T09:37:38.031Z,94574.09
2022-08-26T09:40:34.773Z,94564.41
2022-08-26T09:43:23.191Z,94563.66
2022-08-26T09:46:09.796Z,94561.44
2022-08-26T09:48:40.622Z,94556.28
2022-08-26T09:51:28.976Z,94552.03
2022-08-26T09:54:01.666Z,94545.44
2022-08-26T09:56:34.419Z,94550.72
2022-08-26T09:59:02.160Z,94544.59
2022-08-26T10:01:32.260Z,94538.44
2022-08-26T10:04:08.147Z,94537.28
2022-08-26T10:06:40.585Z,94531.00
2022-08-26T10:09:12.563Z,94527.94
2022-08-26T10:11:51.888Z,94529.69
2022-08-26T10:14:28.151Z,94531.69
2022-08-26T10:16:55.037Z,94524.47
2022-08-26T10:19:29.106Z,94516.00
2022-08-26T10:22:14.588Z,94513.78
2022-08-26T10:24:48.990Z,94515.78
2022-08-26T10:27:38.396Z,94516.59
2022-08-26T10:30:21.398Z,94509.47
2022-08-26T10:32:56.859Z,94505.06
2022-08-26T10:35:24.161Z,94498.75
2022-08-26T10:37:58.716Z,94502.97
2022-08-26T10:40:27.485Z,94501.09
2022-08-26T10:43:11.023Z,94499.44
2022-08-26T10:45:44.559Z,94495.56
2022-08-26T10:48:18.262Z,94504.22
2022-08-26T10:50:47.561Z,94497.38
2022-08-26T10:53:24.971Z,94495.25
2022-08-26T10:56:37.379Z,94500.03
2022-08-26T10:59:13.467Z,94482.66
2022-08-26T11:01:51.013Z,94473.31
2022-08-26T11:04:28.816Z,94483.09
2022-08-26T11:07:33.322Z,94470.03
2022-08-26T11:10:06.955Z,94473.66
2022-08-26T11:12:37.275Z,94460.06
2022-08-26T11:15:10.819Z,94461.19
2022-08-26T11:17:46.139Z,94456.84
2022-08-26T11:20:15.896Z,94466.56
2022-08-26T11:22:48.048Z,94462.44
2022-08-26T11:25:20.318Z,94468.16
2022-08-26T11:27:52.653Z,94463.81
2022-08-26T11:30:20.449Z,94457.75
2022-08-26T11:32:51.915Z,94462.94
2022-08-26T11:35:21.938Z,94467.00
2022-08-26T11:37:48.713Z,94466.19
2022-08-26T11:40:20.711Z,94461.09
2022-08-26T11:42:55.913Z,94464.44
2022-08-26T11:45:37.910Z,94458.72
2022-08-26T11:48:29.847Z,94453.81
2022-08-26T11:50:59.053Z,94454.47
2022-08-26T11:53:28.008Z,94447.88
2022-08-26T11:55:58.355Z,94449.44
2022-08-26T11:58:27.460Z,94446.69
2022-08-26T12:01:26.066Z,94440.00
2022-08-26T12:03:56.232Z,94441.84
2022-08-26T12:06:45.794Z,94439.81
2022-08-26T12:09:23.328Z,94444.72
2022-08-26T12:11:57.950Z,94434.53
2022-08-26T12:14:27.316Z,94435.06
2022-08-26T12:16:55.088Z,94435.25
2022-08-26T12:19:33.457Z,94437.44
2022-08-26T12:22:29.886Z,94435.53
2022-08-26T12:25:03.440Z,94441.13
2022-08-26T12:27:53.569Z,94436.66
2022-08-26T12:30:26.176Z,94437.13
2022-08-26T12:33:22.775Z,94426.06
2022-08-26T12:35:54.304Z,94419.56
2022-08-26T12:38:25.151Z,94415.16
2022-08-26T12:40:52.235Z,94418.63
2022-08-26T12:43:39.826Z,94411.47
2022-08-26T12:46:09.241Z,94411.19
2022-08-26T12:48:38.829Z,94404.47
2022-08-26T12:51:19.497Z,94405.06
2022-08-26T12:53:46.252Z,94403.94
2022-08-26T12:56:43.181Z,94391.75
2022-08-26T12:59:25.232Z,94394.28
2022-08-26T13:01:53.697Z,94391.63
2022-08-26T13:04:38.504Z,94387.72
2022-08-26T13:07:25.306Z,94379.97
2022-08-26T13:09:54.993Z,94380.25
2022-08-26T13:12:41.313Z,94376.44
2022-08-26T13:15:08.393Z,94381.13
2022-08-26T13:17:36.089Z,94373.25
2022-08-26T13:20:04.353Z,94371.84
2022-08-26T13:22:31.940Z,94370.19
2022-08-26T13:24:58.779Z,94363.06
2022-08-26T13:27:27.341Z,94360.22
2022-08-26T13:29:55.169Z,94354.19
2022-08-26T13:32:27.592Z,94357.00
2022-08-26T13:34:56.306Z,94360.81
2022-08-26T13:37:31.497Z,94354.88
2022-08-26T13:40:04.986Z,94361.78
2022-08-26T13:42:31.768Z,94352.53
2022-08-26T13:44:59.953Z,94344.22
2022-08-26T13:47:27.797Z,94353.56
2022-08-26T13:49:55.264Z,94341.09
2022-08-26T13:52:30.327Z,94344.88
2022-08-26T13:54:58.104Z,94346.50
2022-08-26T13:57:27.967Z,94343.97
2022-08-26T13:59:56.570Z,94347.47
2022-08-26T14:02:23.354Z,94348.72
2022-08-26T14:04:50.228Z,94347.63
2022-08-26T14:07:17.288Z,94354.03
2022-08-26T14:09:44.044Z,94346.41
2022-08-26T14:12:10.946Z,94344.03
2022-08-26T14:14:37.637Z,94347.78
2022-08-26T14:17:04.428Z,94344.38
2022-08-26T14:19:31.714Z,94344.56
2022-08-26T14:22:00.900Z,94345.81
2022-08-26T14:24:28.957Z,94351.63
2022-08-26T14:26:55.888Z,94341.94
2022-08-26T14:29:22.634Z,94341.78
2022-08-26T14:31:49.636Z,94337.00
2022-08-26T14:34:16.527Z,94334.75
2022-08-26T14:36:43.548Z,94329.91
2022-08-26T14:39:12.245Z,94335.69
2022-08-26T14:41:54.198Z,94334.09
2022-08-26T14:44:24.813Z,94321.25
2022-08-26T14:46:53.095Z,94327.22
2022-08-26T14:49:21.065Z,94327.34
2022-08-26T14:51:48.117Z,94318.41
2022-08-26T14:54:16.889Z,94323.28
2022-08-26T14:56:52.193Z,94316.75
2022-08-26T14:59:22.226Z,94305.59
2022-08-26T15:01:49.329Z,94309.41
2022-08-26T15:04:16.223Z,94310.22
2022-08-26T15:06:43.256Z,94303.72
2022-08-26T15:09:10.921Z,94301.63
2022-08-26T15:11:37.703Z,94309.25
2022-08-26T15:14:05.446Z,94310.66
2022-08-26T15:16:33.720Z,94299.63
2022-08-26T15:19:04.689Z,94301.19
2022-08-26T15:21:33.053Z,94300.59
2022-08-26T15:24:04.326Z,94298.38
2022-08-26T15:26:32.578Z,94302.59
2022-08-26T15:29:03.095Z,94297.41
2022-08-26T15:31:33.217Z,94293.06
2022-08-26T15:34:06.237Z,94299.25
2022-08-26T15:36:33.241Z,94288.75
2022-08-26T15:39:01.052Z,94296.50
2022-08-26T15:41:29.576Z,94290.31
2022-08-26T15:43:57.270Z,94285.94
2022-08-26T15:46:24.431Z,94290.28
2022-08-26T15:48:52.067Z,94284.59
2022-08-26T15:51:20.735Z,94288.16
2022-08-26T15:53:49.928Z,94274.47
2022-08-26T15:56:17.127Z,94266.72
2022-08-26T15:58:45.697Z,94265.56
2022-08-26T16:01:12.609Z,94266.88
2022-08-26T16:03:39.572Z,94273.16
2022-08-26T16:06:07.090Z,94269.19
2022-08-26T16:08:36.467Z,94275.56
2022-08-26T16:11:04.702Z,94273.09
2022-08-26T16:13:36.364Z,94270.78
2022-08-26T16:16:08.487Z,94282.66
2022-08-26T16:18:35.224Z,94277.31
2022-08-26T16:21:13.590Z,94286.16
2022-08-26T16:23:45.047Z,94281.25
2022-08-26T16:26:18.891Z,94286.53
2022-08-26T16:28:46.501Z,94287.41
2022-08-26T16:31:14.381Z,94282.34
2022-08-26T16:33:41.242Z,94284.38
2022-08-26T16:36:08.722Z,94287.09
2022-08-26T16:38:37.686Z,94292.91
2022-08-26T16:41:05.262Z,94293.72
2022-08-26T16:43:32.278Z,94290.50
2022-08-26T16:45:59.587Z,94292.53
2022-08-26T16:48:27.634Z,94297.28
2022-08-26T16:50:55.684Z,94294.00
2022-08-26T16:53:23.247Z,94297.56
2022-08-26T16:55:51.346Z,94295.88
2022-08-26T16:58:20.406Z,94295.56
2022-08-26T17:00:48.841Z,94293.84
2022-08-26T17:03:15.872Z,94301.97
2022-08-26T17:05:42.926Z,94300.72
2022-08-26T17:08:10.207Z,94301.88
2022-08-26T17:10:37.878Z,94298.25
2022-08-26T17:13:05.148Z,94307.06
2022-08-26T17:15:32.091Z,94307.91
2022-08-26T17:17:59.152Z,94301.28
2022-08-26T17:20:26.581Z,94299.28
2022-08-26T17:22:55.045Z,94305.34
2022-08-26T17:25:28.231Z,94305.88
2022-08-26T17:30:27.061Z,94309.75
2022-08-26T17:32:56.571Z,94317.78
2022-08-26T17:35:23.802Z,94318.97
2022-08-26T17:37:53.551Z,94330.28
2022-08-26T17:40:23.650Z,94332.81
2022-08-26T17:42:51.153Z,94335.28
2022-08-26T17:47:45.819Z,94336.84
2022-08-26T17:50:15.680Z,94338.13
2022-08-26T17:52:46.048Z,94338.78
2022-08-26T17:55:15.318Z,94332.59
2022-08-26T17:57:44.050Z,94335.34
2022-08-26T18:00:23.159Z,94339.28
2022-08-26T18:02:49.919Z,94339.56
2022-08-26T18:05:17.580Z,94349.56
2022-08-26T18:07:44.973Z,94352.09
2022-08-26T18:10:15.497Z,94368.13
2022-08-26T18:12:43.108Z,94375.31
2022-08-26T18:15:12.393Z,94388.78
2022-08-26T18:17:39.709Z,94394.09
2022-08-26T18:20:12.817Z,94403.34
2022-08-26T18:22:39.612Z,94405.56
2022-08-26T18:25:08.266Z,94409.41
2022-08-26T18:27:36.462Z,94412.28
2022-08-26T18:30:07.173Z,94421.28
2022-08-26T18:32:33.919Z,94424.38
2022-08-26T18:35:00.610Z,94422.88
2022-08-26T18:37:30.906Z,94427.97
2022-08-26T18:39:59.656Z,94423.28
2022-08-26T18:42:27.253Z,94408.63
2022-08-26T18:44:54.554Z,94410.53
2022-08-26T18:47:21.574Z,94397.75
2022-08-26T18:49:48.762Z,94397.66
2022-08-26T18:52:15.865Z,94400.56
2022-08-26T18:54:43.136Z,94394.44
2022-08-26T18:57:10.401Z,94405.22
2022-08-26T18:59:37.201Z,94406.63
2022-08-26T19:02:04.242Z,94403.06
2022-08-26T19:04:31.008Z,94411.38
2022-08-26T19:06:57.962Z,94401.81
2022-08-26T19:09:26.451Z,94395.41
2022-08-26T19:14:26.499Z,94404.84
2022-08-26T19:16:53.678Z,94399.16
2022-08-26T19:19:24.213Z,94406.91
2022-08-26T19:21:51.872Z,94408.69
2022-08-26T19:24:19.724Z,94408.81
2022-08-26T19:26:58.093Z,94419.97
2022-08-26T19:29:27.913Z,94415.53
2022-08-26T19:31:56.564Z,94413.91
2022-08-26T19:34:24.193Z,94407.63
2022-08-26T19:36:53.258Z,94407.16
2022-08-26T19:39:21.398Z,94416.88
2022-08-26T19:41:48.289Z,94419.84
2022-08-26T19:44:36.547Z,94422.66
2022-08-26T19:47:04.598Z,94428.47
2022-08-26T19:49:32.305Z,94444.88
2022-08-26T19:51:59.859Z,94443.19
2022-08-26T19:54:27.220Z,94447.53
2022-08-26T19:56:54.672Z,94448.59
2022-08-26T19:59:21.849Z,94457.69
2022-08-26T20:02:00.846Z,94451.97
2022-08-26T20:04:30.749Z,94449.03
2022-08-26T20:06:58.672Z,94440.66
2022-08-26T20:09:27.659Z,94436.91
2022-08-26T20:11:56.782Z,94434.00
2022-08-26T20:14:24.128Z,94435.03
2022-08-26T20:16:50.970Z,94431.28
2022-08-26T20:19:37.592Z,94432.22
2022-08-26T20:22:05.137Z,94433.16
2022-08-26T20:24:32.689Z,94423.56
2022-08-26T20:27:00.293Z,94415.75
2022-08-26T20:29:29.232Z,94420.88
2022-08-26T20:31:56.537Z,94418.53
2022-08-26T20:34:23.535Z,94419.56
2022-08-26T20:36:51.094Z,94417.91
2022-08-26T20:39:21.126Z,94416.28
2022-08-26T20:41:48.633Z,94417.31
2022-08-26T20:44:16.813Z,94415.78
2022-08-26T20:46:43.921Z,94473.41
2022-08-26T20:49:10.985Z,94460.06
2022-08-26T20:51:38.908Z,94479.81
2022-08-26T20:54:07.067Z,94481.44
2022-08-26T20:56:34.191Z,94480.34
2022-08-26T20:59:01.809Z,94487.06
2022-08-26T21:01:34.780Z,94487.06
2022-08-26T21:04:08.761Z,94482.41
2022-08-26T21:06:36.423Z,94492.13
2022-08-26T21:09:05.793Z,94495.41
2022-08-26T21:11:34.313Z,94497.09
2022-08-26T21:14:06.834Z,94490.78
2022-08-26T21:16:44.056Z,94483.78
2022-08-26T21:19:13.449Z,94491.38
2022-08-26T21:21:41.382Z,94489.84
2022-08-26T21:24:09.267Z,94503.38
2022-08-26T21:26:36.615Z,94507.91
2022-08-26T21:29:04.071Z,94518.91
2022-08-26T21:31:32.118Z,94524.69
2022-08-26T21:33:59.607Z,94529.19
2022-08-26T21:36:27.150Z,94527.09
2022-08-26T21:38:57.239Z,94528.78
2022-08-26T21:41:25.084Z,94525.84
2022-08-26T21:43:55.288Z,94538.91
2022-08-26T21:46:24.758Z,94530.78
2022-08-26T21:48:55.585Z,94526.69
2022-08-26T21:51:25.045Z,94529.22
2022-08-26T21:53:54.947Z,94526.97
2022-08-26T21:56:26.769Z,94524.88
2022-08-26T21:58:56.036Z,94527.28
2022-08-26T22:01:25.272Z,94528.50
2022-08-26T22:03:54.917Z,94530.91
2022-08-26T22:06:27.718Z,94529.09
2022-08-26T22:08:55.990Z,94522.34
2022-08-26T22:11:23.125Z,94528.81
2022-08-26T22:13:50.134Z,94528.09
2022-08-26T22:16:18.036Z,94524.44
2022-08-26T22:18:45.941Z,94520.41
2022-08-26T22:21:19.779Z,94528.25
2022-08-26T22:23:47.479Z,94533.31
2022-08-26T22:26:25.277Z,94539.91
2022-08-26T22:28:58.570Z,94546.94
2022-08-26T22:31:28.082Z,94551.44
2022-08-26T22:34:08.292Z,94545.25
2022-08-26T22:36:35.600Z,94557.06
2022-08-26T22:39:06.505Z,94543.56
2022-08-26T22:41:37.614Z,94553.94
2022-08-26T22:44:04.590Z,94555.22
2022-08-26T22:46:33.054Z,94564.50
2022-08-26T22:49:00.037Z,94572.91
2022-08-26T22:51:27.942Z,94562.09
2022-08-26T22:53:54.643Z,94564.78
2022-08-26T22:56:22.228Z,94567.31
2022-08-26T22:58:49.233Z,94563.06
2022-08-26T23:01:17.087Z,94562.38
2022-08-26T23:03:44.723Z,94570.22
2022-08-26T23:06:11.968Z,94565.44
2022-08-26T23:08:39.524Z,94561.38
2022-08-26T23:11:13.931Z,94566.00
2022-08-26T23:13:41.392Z,94564.31
2022-08-26T23:16:10.093Z,94569.78
2022-08-26T23:18:37.067Z,94573.72
2022-08-26T23:21:04.082Z,94574.84
2022-08-26T23:23:31.218Z,94568.78
2022-08-26T23:25:58.567Z,94572.75
2022-08-26T23:28:26.617Z,94569.91
2022-08-26T23:30:54.055Z,94571.88
2022-08-26T23:33:24.147Z,94572.44
2022-08-26T23:35:50.891Z,94575.13
2022-08-26T23:38:17.660Z,94571.59
2022-08-26T23:40:44.629Z,94560.22
2022-08-26T23:43:16.416Z,94564.16
2022-08-26T23:45:43.911Z,94570.16
2022-08-26T23:48:11.115Z,94568.09
2022-08-26T23:50:56.859Z,94573.97
2022-08-26T23:53:23.581Z,94573.13
2022-08-26T23:55:51.881Z,94576.50
2022-08-26T23:58:21.484Z,94572.97
